Eddyville, KY

9:46 AM CDT on October 01, 2014 (GMT -0500)
Campbell Army Air Field | Change Station
CLOSE
Current Station
Airport
Location: Fort Campbell,
Elevation: 571 ft
Nearby Weather Stations

Elev 571 ft 36.67 °N, 87.50 °W | Updated 48 minutes ago

Partly Cloudy
Partly Cloudy
68 °F
Feels Like 68 °F
N
6
Wind Variable Wind from ESE

Today
High -- | Low -- °F
--% Chance of Precip.
Yesterday
High -- | Low -- °F
Precip. -- in
6:47 AM 6:35 PM
Waxing Crescent, 48% visible
Pressure 29.98 in
Visibility 10.0 miles
Clouds Few 8000 ft
Dew Point 58 °F
Humidity 71%
Rainfall 0.00 in
Snow Depth Not available.
UV 2 out of 12
Pollen 5.50 out of 12
Air Quality Not available.
Flu Activity Not available.
METAR KHOP 011358Z AUTO 12005KT 10SM FEW080 20/15 A2998 RMK AO2 SLP150 T02010146

More Conditions Fewer Conditions

Pressure 29.98 in
Visibility 10.0 miles
Clouds Few 8000 ft
Dew Point 58 °F
Humidity 71%
Rainfall 0.00 in
Snow Depth Not available.
UV 2 out of 12
Pollen 5.50 out of 12
Air Quality Not available.
Flu Activity Not available.
METAR KHOP 011358Z AUTO 12005KT 10SM FEW080 20/15 A2998 RMK AO2 SLP150 T02010146

More Conditions Fewer Conditions

10-Day Weather Forecast

Almanac

Astronomy

Oct. 01, 2014 Rise Set
Actual Time 6:47 AM CDT 6:35 PM CDT
Civil Twilight 6:21 AM CDT 7:01 PM CDT
Nautical Twilight 5:51 AM CDT 7:31 PM CDT
Astronomical Twilight 5:21 AM CDT 8:01 PM CDT
Moon 1:42 PM CDT No Moon Set
Length of Visible Light 12h 39m
Length of Day
11h 47m
Tomorrow will be 2m 21s shorter.
Waxing Crescent, 48% of the Moon is Illuminated
Today
Waxing Crescent
Oct 1
First Quarter
Oct 8
Full
Oct 15
Last Quarter
Oct 23
New

Today's Extremes

State Highs State Lows

Community

WunderPhotos

Upload Photos

1,757,960 photos uploaded!

Nearby

Snow Depth

Station Depth Elevation
No new snow has been reported.

Earthquake Activity

City Distance Mag. Time & Date
No recent earthquake activity has been reported nearby.
Minimum magnitude displayed is 2.5.

Coastal Water Temperatures

Place Temperature
No Stations Reporting

Nearby Weather Stations